sensor_id;sensor_type;location;lat;lon;timestamp;P1;durP1;ratioP1;P2;durP2;ratioP2
19492;SDS011;9887;54.366;10.958;2024-03-08T00:00:16;8.27;;;4.97;;
19492;SDS011;9887;54.366;10.958;2024-03-08T00:02:47;8.77;;;4.45;;
19492;SDS011;9887;54.366;10.958;2024-03-08T00:05:17;7.53;;;4.13;;
19492;SDS011;9887;54.366;10.958;2024-03-08T00:07:45;9.00;;;4.82;;
19492;SDS011;9887;54.366;10.958;2024-03-08T00:10:13;8.63;;;4.20;;
19492;SDS011;9887;54.366;10.958;2024-03-08T00:12:42;10.57;;;4.82;;
19492;SDS011;9887;54.366;10.958;2024-03-08T00:15:11;13.50;;;5.03;;
19492;SDS011;9887;54.366;10.958;2024-03-08T00:17:42;8.27;;;4.60;;
19492;SDS011;9887;54.366;10.958;2024-03-08T00:20:13;11.50;;;4.72;;
19492;SDS011;9887;54.366;10.958;2024-03-08T00:22:41;8.23;;;5.13;;
19492;SDS011;9887;54.366;10.958;2024-03-08T00:25:09;9.45;;;4.75;;
19492;SDS011;9887;54.366;10.958;2024-03-08T00:27:38;8.07;;;4.40;;
19492;SDS011;9887;54.366;10.958;2024-03-08T00:30:07;10.52;;;5.63;;
19492;SDS011;9887;54.366;10.958;2024-03-08T00:32:37;11.35;;;5.47;;
19492;SDS011;9887;54.366;10.958;2024-03-08T00:35:05;13.65;;;5.90;;
19492;SDS011;9887;54.366;10.958;2024-03-08T00:37:36;9.68;;;4.93;;
19492;SDS011;9887;54.366;10.958;2024-03-08T00:40:04;9.90;;;5.80;;
19492;SDS011;9887;54.366;10.958;2024-03-08T00:42:35;11.73;;;5.45;;
19492;SDS011;9887;54.366;10.958;2024-03-08T00:45:05;12.55;;;5.85;;
19492;SDS011;9887;54.366;10.958;2024-03-08T00:47:33;11.80;;;5.38;;
19492;SDS011;9887;54.366;10.958;2024-03-08T00:50:02;9.98;;;5.65;;
19492;SDS011;9887;54.366;10.958;2024-03-08T00:52:31;9.93;;;5.35;;
19492;SDS011;9887;54.366;10.958;2024-03-08T00:55:02;10.02;;;5.53;;
19492;SDS011;9887;54.366;10.958;2024-03-08T00:57:31;10.05;;;5.45;;
19492;SDS011;9887;54.366;10.958;2024-03-08T00:59:59;11.55;;;5.32;;
19492;SDS011;9887;54.366;10.958;2024-03-08T01:02:30;10.65;;;4.95;;
19492;SDS011;9887;54.366;10.958;2024-03-08T01:04:59;12.60;;;5.68;;
19492;SDS011;9887;54.366;10.958;2024-03-08T01:07:28;8.90;;;5.28;;
19492;SDS011;9887;54.366;10.958;2024-03-08T01:09:57;11.50;;;5.32;;
19492;SDS011;9887;54.366;10.958;2024-03-08T01:12:26;10.13;;;5.55;;
19492;SDS011;9887;54.366;10.958;2024-03-08T01:14:54;10.95;;;5.85;;
19492;SDS011;9887;54.366;10.958;2024-03-08T01:17:21;9.82;;;5.60;;
19492;SDS011;9887;54.366;10.958;2024-03-08T01:19:50;9.90;;;5.35;;
19492;SDS011;9887;54.366;10.958;2024-03-08T01:22:19;9.68;;;6.22;;
19492;SDS011;9887;54.366;10.958;2024-03-08T01:24:47;9.90;;;5.97;;
19492;SDS011;9887;54.366;10.958;2024-03-08T01:27:15;13.23;;;6.00;;
19492;SDS011;9887;54.366;10.958;2024-03-08T01:29:44;11.73;;;5.72;;
19492;SDS011;9887;54.366;10.958;2024-03-08T01:32:12;12.15;;;6.38;;
19492;SDS011;9887;54.366;10.958;2024-03-08T01:34:40;11.07;;;6.35;;
19492;SDS011;9887;54.366;10.958;2024-03-08T01:37:08;9.88;;;5.95;;
19492;SDS011;9887;54.366;10.958;2024-03-08T01:39:36;12.32;;;6.18;;
19492;SDS011;9887;54.366;10.958;2024-03-08T01:42:04;11.70;;;6.63;;
19492;SDS011;9887;54.366;10.958;2024-03-08T01:44:32;10.88;;;7.13;;
19492;SDS011;9887;54.366;10.958;2024-03-08T01:47:02;11.60;;;6.30;;
19492;SDS011;9887;54.366;10.958;2024-03-08T01:49:30;11.65;;;6.25;;
19492;SDS011;9887;54.366;10.958;2024-03-08T01:51:59;12.10;;;6.40;;
19492;SDS011;9887;54.366;10.958;2024-03-08T01:54:28;10.38;;;6.88;;
19492;SDS011;9887;54.366;10.958;2024-03-08T01:56:56;11.25;;;6.88;;
19492;SDS011;9887;54.366;10.958;2024-03-08T01:59:25;11.65;;;6.90;;
19492;SDS011;9887;54.366;10.958;2024-03-08T02:01:53;10.85;;;6.88;;
19492;SDS011;9887;54.366;10.958;2024-03-08T02:04:29;15.65;;;7.45;;
19492;SDS011;9887;54.366;10.958;2024-03-08T02:06:57;12.63;;;7.38;;
19492;SDS011;9887;54.366;10.958;2024-03-08T02:09:26;12.68;;;7.22;;
19492;SDS011;9887;54.366;10.958;2024-03-08T02:11:55;10.38;;;6.97;;
19492;SDS011;9887;54.366;10.958;2024-03-08T02:14:30;12.43;;;7.05;;
19492;SDS011;9887;54.366;10.958;2024-03-08T02:17:00;11.50;;;7.18;;
19492;SDS011;9887;54.366;10.958;2024-03-08T02:19:29;11.43;;;7.05;;
19492;SDS011;9887;54.366;10.958;2024-03-08T02:21:59;14.57;;;7.57;;
19492;SDS011;9887;54.366;10.958;2024-03-08T02:24:30;13.27;;;7.05;;
19492;SDS011;9887;54.366;10.958;2024-03-08T02:26:59;14.02;;;7.10;;
19492;SDS011;9887;54.366;10.958;2024-03-08T02:29:27;10.85;;;7.07;;
19492;SDS011;9887;54.366;10.958;2024-03-08T02:31:55;13.00;;;7.22;;
19492;SDS011;9887;54.366;10.958;2024-03-08T02:34:23;10.70;;;6.90;;
19492;SDS011;9887;54.366;10.958;2024-03-08T02:36:51;10.18;;;6.65;;
19492;SDS011;9887;54.366;10.958;2024-03-08T02:39:20;14.77;;;6.93;;
19492;SDS011;9887;54.366;10.958;2024-03-08T02:41:49;15.38;;;6.82;;
19492;SDS011;9887;54.366;10.958;2024-03-08T02:44:17;13.02;;;7.20;;
19492;SDS011;9887;54.366;10.958;2024-03-08T02:46:47;11.68;;;6.70;;
19492;SDS011;9887;54.366;10.958;2024-03-08T02:49:16;12.50;;;6.57;;
19492;SDS011;9887;54.366;10.958;2024-03-08T02:51:44;10.73;;;6.78;;
19492;SDS011;9887;54.366;10.958;2024-03-08T02:54:12;12.38;;;7.00;;
19492;SDS011;9887;54.366;10.958;2024-03-08T02:56:41;13.88;;;6.60;;
19492;SDS011;9887;54.366;10.958;2024-03-08T02:59:09;12.70;;;6.60;;
19492;SDS011;9887;54.366;10.958;2024-03-08T03:01:37;10.38;;;6.15;;
19492;SDS011;9887;54.366;10.958;2024-03-08T03:04:05;10.98;;;6.35;;
19492;SDS011;9887;54.366;10.958;2024-03-08T03:06:33;11.95;;;6.40;;
19492;SDS011;9887;54.366;10.958;2024-03-08T03:09:02;9.85;;;6.00;;
19492;SDS011;9887;54.366;10.958;2024-03-08T03:11:32;10.23;;;6.43;;
19492;SDS011;9887;54.366;10.958;2024-03-08T03:14:01;10.10;;;5.53;;
19492;SDS011;9887;54.366;10.958;2024-03-08T03:16:30;11.40;;;5.80;;
19492;SDS011;9887;54.366;10.958;2024-03-08T03:18:58;9.55;;;5.28;;
19492;SDS011;9887;54.366;10.958;2024-03-08T03:21:28;10.15;;;5.28;;
19492;SDS011;9887;54.366;10.958;2024-03-08T03:23:57;10.43;;;5.47;;
19492;SDS011;9887;54.366;10.958;2024-03-08T03:26:26;10.38;;;5.78;;
19492;SDS011;9887;54.366;10.958;2024-03-08T03:28:54;10.32;;;6.00;;
19492;SDS011;9887;54.366;10.958;2024-03-08T03:31:24;10.30;;;5.82;;
19492;SDS011;9887;54.366;10.958;2024-03-08T03:33:52;11.02;;;5.78;;
19492;SDS011;9887;54.366;10.958;2024-03-08T03:36:20;10.32;;;5.65;;
19492;SDS011;9887;54.366;10.958;2024-03-08T03:38:48;14.63;;;5.53;;
19492;SDS011;9887;54.366;10.958;2024-03-08T03:41:18;12.57;;;6.38;;
19492;SDS011;9887;54.366;10.958;2024-03-08T03:43:46;10.02;;;5.78;;
19492;SDS011;9887;54.366;10.958;2024-03-08T03:46:15;11.43;;;6.28;;
19492;SDS011;9887;54.366;10.958;2024-03-08T03:48:45;11.55;;;5.93;;
19492;SDS011;9887;54.366;10.958;2024-03-08T03:51:13;9.60;;;5.60;;
19492;SDS011;9887;54.366;10.958;2024-03-08T03:53:42;13.90;;;6.60;;
19492;SDS011;9887;54.366;10.958;2024-03-08T03:56:10;9.80;;;5.88;;
19492;SDS011;9887;54.366;10.958;2024-03-08T03:58:37;13.18;;;5.30;;
19492;SDS011;9887;54.366;10.958;2024-03-08T04:01:06;10.82;;;5.70;;
19492;SDS011;9887;54.366;10.958;2024-03-08T04:03:34;9.73;;;5.63;;
19492;SDS011;9887;54.366;10.958;2024-03-08T04:06:03;9.10;;;5.80;;
19492;SDS011;9887;54.366;10.958;2024-03-08T04:08:31;9.50;;;5.68;;
19492;SDS011;9887;54.366;10.958;2024-03-08T04:11:00;9.30;;;5.43;;
19492;SDS011;9887;54.366;10.958;2024-03-08T04:13:29;12.38;;;6.13;;
19492;SDS011;9887;54.366;10.958;2024-03-08T04:15:56;12.00;;;6.03;;
19492;SDS011;9887;54.366;10.958;2024-03-08T04:18:27;10.57;;;5.85;;
19492;SDS011;9887;54.366;10.958;2024-03-08T04:20:55;11.85;;;6.95;;
19492;SDS011;9887;54.366;10.958;2024-03-08T04:23:24;10.80;;;6.35;;
19492;SDS011;9887;54.366;10.958;2024-03-08T04:25:52;13.07;;;6.32;;
19492;SDS011;9887;54.366;10.958;2024-03-08T04:28:20;12.55;;;6.40;;
19492;SDS011;9887;54.366;10.958;2024-03-08T04:30:48;12.27;;;6.43;;
19492;SDS011;9887;54.366;10.958;2024-03-08T04:33:17;10.63;;;6.07;;
19492;SDS011;9887;54.366;10.958;2024-03-08T04:35:45;11.00;;;6.32;;
19492;SDS011;9887;54.366;10.958;2024-03-08T04:38:13;11.15;;;6.60;;
19492;SDS011;9887;54.366;10.958;2024-03-08T04:40:43;12.00;;;6.43;;
19492;SDS011;9887;54.366;10.958;2024-03-08T04:43:11;10.40;;;6.63;;
19492;SDS011;9887;54.366;10.958;2024-03-08T04:45:40;10.05;;;6.72;;
19492;SDS011;9887;54.366;10.958;2024-03-08T04:48:10;12.02;;;6.90;;
19492;SDS011;9887;54.366;10.958;2024-03-08T04:50:39;13.98;;;7.40;;
19492;SDS011;9887;54.366;10.958;2024-03-08T04:53:06;13.25;;;7.40;;
19492;SDS011;9887;54.366;10.958;2024-03-08T04:55:35;14.95;;;8.27;;
19492;SDS011;9887;54.366;10.958;2024-03-08T04:58:05;14.05;;;8.73;;
19492;SDS011;9887;54.366;10.958;2024-03-08T05:00:33;12.05;;;7.40;;
19492;SDS011;9887;54.366;10.958;2024-03-08T05:03:01;13.10;;;7.80;;
19492;SDS011;9887;54.366;10.958;2024-03-08T05:05:31;12.20;;;7.70;;
19492;SDS011;9887;54.366;10.958;2024-03-08T05:08:00;14.63;;;7.60;;
19492;SDS011;9887;54.366;10.958;2024-03-08T05:10:29;13.10;;;7.75;;
19492;SDS011;9887;54.366;10.958;2024-03-08T05:12:56;13.07;;;7.88;;
19492;SDS011;9887;54.366;10.958;2024-03-08T05:15:26;12.02;;;7.93;;
19492;SDS011;9887;54.366;10.958;2024-03-08T05:17:53;11.82;;;7.50;;
19492;SDS011;9887;54.366;10.958;2024-03-08T05:20:24;13.93;;;7.95;;
19492;SDS011;9887;54.366;10.958;2024-03-08T05:22:52;13.85;;;8.18;;
19492;SDS011;9887;54.366;10.958;2024-03-08T05:25:20;14.63;;;7.68;;
19492;SDS011;9887;54.366;10.958;2024-03-08T05:27:48;12.07;;;7.80;;
19492;SDS011;9887;54.366;10.958;2024-03-08T05:30:16;13.38;;;8.02;;
19492;SDS011;9887;54.366;10.958;2024-03-08T05:32:46;13.82;;;8.00;;
19492;SDS011;9887;54.366;10.958;2024-03-08T05:35:14;12.13;;;8.32;;
19492;SDS011;9887;54.366;10.958;2024-03-08T05:37:42;19.92;;;9.75;;
19492;SDS011;9887;54.366;10.958;2024-03-08T05:40:13;15.35;;;9.23;;
19492;SDS011;9887;54.366;10.958;2024-03-08T05:42:45;17.33;;;9.00;;
19492;SDS011;9887;54.366;10.958;2024-03-08T05:45:13;16.30;;;9.00;;
19492;SDS011;9887;54.366;10.958;2024-03-08T05:47:41;13.63;;;9.52;;
19492;SDS011;9887;54.366;10.958;2024-03-08T05:50:11;14.18;;;9.43;;
19492;SDS011;9887;54.366;10.958;2024-03-08T05:52:39;15.88;;;9.43;;
19492;SDS011;9887;54.366;10.958;2024-03-08T05:55:07;15.60;;;9.27;;
19492;SDS011;9887;54.366;10.958;2024-03-08T05:57:36;14.35;;;9.57;;
19492;SDS011;9887;54.366;10.958;2024-03-08T06:00:06;16.67;;;10.07;;
19492;SDS011;9887;54.366;10.958;2024-03-08T06:02:40;15.45;;;9.88;;
19492;SDS011;9887;54.366;10.958;2024-03-08T06:05:09;12.57;;;8.27;;
19492;SDS011;9887;54.366;10.958;2024-03-08T06:07:38;15.55;;;8.95;;
19492;SDS011;9887;54.366;10.958;2024-03-08T06:10:07;13.07;;;8.98;;
19492;SDS011;9887;54.366;10.958;2024-03-08T06:12:38;15.77;;;9.57;;
19492;SDS011;9887;54.366;10.958;2024-03-08T06:15:08;14.18;;;8.82;;
19492;SDS011;9887;54.366;10.958;2024-03-08T06:17:45;15.57;;;8.30;;
19492;SDS011;9887;54.366;10.958;2024-03-08T06:20:14;15.10;;;9.32;;
19492;SDS011;9887;54.366;10.958;2024-03-08T06:22:42;13.10;;;8.40;;
19492;SDS011;9887;54.366;10.958;2024-03-08T06:25:11;13.77;;;8.70;;
19492;SDS011;9887;54.366;10.958;2024-03-08T06:27:40;15.20;;;8.80;;
19492;SDS011;9887;54.366;10.958;2024-03-08T06:30:09;13.82;;;8.88;;
19492;SDS011;9887;54.366;10.958;2024-03-08T06:32:38;13.52;;;8.95;;
19492;SDS011;9887;54.366;10.958;2024-03-08T06:35:09;16.25;;;10.65;;
19492;SDS011;9887;54.366;10.958;2024-03-08T06:37:39;15.45;;;9.50;;
19492;SDS011;9887;54.366;10.958;2024-03-08T06:40:09;16.40;;;10.35;;
19492;SDS011;9887;54.366;10.958;2024-03-08T06:42:40;15.52;;;9.80;;
19492;SDS011;9887;54.366;10.958;2024-03-08T06:45:09;16.67;;;9.50;;
19492;SDS011;9887;54.366;10.958;2024-03-08T06:47:39;15.02;;;9.98;;
19492;SDS011;9887;54.366;10.958;2024-03-08T06:50:08;14.50;;;9.55;;
19492;SDS011;9887;54.366;10.958;2024-03-08T06:52:39;14.07;;;9.18;;
19492;SDS011;9887;54.366;10.958;2024-03-08T06:55:08;15.95;;;10.15;;
19492;SDS011;9887;54.366;10.958;2024-03-08T06:57:38;14.85;;;9.90;;
19492;SDS011;9887;54.366;10.958;2024-03-08T07:00:07;14.50;;;10.18;;
19492;SDS011;9887;54.366;10.958;2024-03-08T07:02:37;15.35;;;10.05;;
19492;SDS011;9887;54.366;10.958;2024-03-08T07:05:07;15.45;;;10.60;;
19492;SDS011;9887;54.366;10.958;2024-03-08T07:07:38;15.32;;;10.55;;
19492;SDS011;9887;54.366;10.958;2024-03-08T07:10:08;14.07;;;9.82;;
19492;SDS011;9887;54.366;10.958;2024-03-08T07:12:38;15.15;;;10.30;;
19492;SDS011;9887;54.366;10.958;2024-03-08T07:15:06;15.65;;;10.85;;
19492;SDS011;9887;54.366;10.958;2024-03-08T07:17:39;18.27;;;10.60;;
19492;SDS011;9887;54.366;10.958;2024-03-08T07:20:08;15.60;;;9.98;;
19492;SDS011;9887;54.366;10.958;2024-03-08T07:22:39;18.88;;;11.77;;
19492;SDS011;9887;54.366;10.958;2024-03-08T07:25:10;16.27;;;11.27;;
19492;SDS011;9887;54.366;10.958;2024-03-08T07:27:46;19.73;;;11.63;;
19492;SDS011;9887;54.366;10.958;2024-03-08T07:30:15;18.50;;;12.50;;
19492;SDS011;9887;54.366;10.958;2024-03-08T07:33:01;17.83;;;12.07;;
19492;SDS011;9887;54.366;10.958;2024-03-08T07:35:29;18.63;;;12.10;;
19492;SDS011;9887;54.366;10.958;2024-03-08T07:37:58;17.48;;;11.85;;
19492;SDS011;9887;54.366;10.958;2024-03-08T07:40:26;19.55;;;12.63;;
19492;SDS011;9887;54.366;10.958;2024-03-08T07:42:54;21.10;;;14.02;;
19492;SDS011;9887;54.366;10.958;2024-03-08T07:45:22;18.63;;;12.82;;
19492;SDS011;9887;54.366;10.958;2024-03-08T07:47:50;24.00;;;13.93;;
19492;SDS011;9887;54.366;10.958;2024-03-08T07:50:19;24.20;;;14.20;;
19492;SDS011;9887;54.366;10.958;2024-03-08T07:52:49;21.92;;;14.15;;
19492;SDS011;9887;54.366;10.958;2024-03-08T07:55:18;22.42;;;13.95;;
19492;SDS011;9887;54.366;10.958;2024-03-08T07:57:46;22.58;;;14.20;;
19492;SDS011;9887;54.366;10.958;2024-03-08T08:00:15;23.38;;;15.07;;
19492;SDS011;9887;54.366;10.958;2024-03-08T08:02:44;28.25;;;15.95;;
19492;SDS011;9887;54.366;10.958;2024-03-08T08:05:12;25.02;;;15.32;;
19492;SDS011;9887;54.366;10.958;2024-03-08T08:07:43;26.80;;;15.60;;
19492;SDS011;9887;54.366;10.958;2024-03-08T08:10:14;25.52;;;14.75;;
19492;SDS011;9887;54.366;10.958;2024-03-08T08:12:46;23.60;;;14.90;;
19492;SDS011;9887;54.366;10.958;2024-03-08T08:15:14;25.92;;;15.77;;
19492;SDS011;9887;54.366;10.958;2024-03-08T08:17:42;24.48;;;15.48;;
19492;SDS011;9887;54.366;10.958;2024-03-08T08:20:10;22.83;;;14.40;;
19492;SDS011;9887;54.366;10.958;2024-03-08T08:22:39;22.50;;;14.63;;
19492;SDS011;9887;54.366;10.958;2024-03-08T08:25:08;22.13;;;13.85;;
19492;SDS011;9887;54.366;10.958;2024-03-08T08:27:39;25.92;;;15.40;;
19492;SDS011;9887;54.366;10.958;2024-03-08T08:30:11;23.85;;;14.10;;
19492;SDS011;9887;54.366;10.958;2024-03-08T08:32:40;21.73;;;13.77;;
19492;SDS011;9887;54.366;10.958;2024-03-08T08:35:09;23.83;;;14.23;;
19492;SDS011;9887;54.366;10.958;2024-03-08T08:37:38;24.05;;;15.07;;
19492;SDS011;9887;54.366;10.958;2024-03-08T08:40:07;25.88;;;15.55;;
19492;SDS011;9887;54.366;10.958;2024-03-08T08:42:37;24.40;;;15.07;;
19492;SDS011;9887;54.366;10.958;2024-03-08T08:45:05;25.40;;;15.95;;
19492;SDS011;9887;54.366;10.958;2024-03-08T08:47:53;22.08;;;14.70;;
19492;SDS011;9887;54.366;10.958;2024-03-08T08:50:21;26.90;;;16.38;;
19492;SDS011;9887;54.366;10.958;2024-03-08T08:52:50;26.35;;;14.98;;
19492;SDS011;9887;54.366;10.958;2024-03-08T08:55:19;24.10;;;14.85;;
19492;SDS011;9887;54.366;10.958;2024-03-08T08:57:51;25.75;;;15.25;;
19492;SDS011;9887;54.366;10.958;2024-03-08T09:00:19;22.90;;;13.90;;
19492;SDS011;9887;54.366;10.958;2024-03-08T09:02:48;26.95;;;15.77;;
19492;SDS011;9887;54.366;10.958;2024-03-08T09:05:18;25.60;;;15.48;;
19492;SDS011;9887;54.366;10.958;2024-03-08T09:07:48;23.52;;;14.45;;
19492;SDS011;9887;54.366;10.958;2024-03-08T09:10:16;29.05;;;15.85;;
19492;SDS011;9887;54.366;10.958;2024-03-08T09:12:45;25.13;;;14.50;;
19492;SDS011;9887;54.366;10.958;2024-03-08T09:15:16;25.63;;;15.48;;
19492;SDS011;9887;54.366;10.958;2024-03-08T09:17:46;24.38;;;16.13;;
19492;SDS011;9887;54.366;10.958;2024-03-08T09:20:14;26.77;;;16.08;;
19492;SDS011;9887;54.366;10.958;2024-03-08T09:22:45;24.65;;;15.10;;
19492;SDS011;9887;54.366;10.958;2024-03-08T09:25:13;28.17;;;16.15;;
19492;SDS011;9887;54.366;10.958;2024-03-08T09:27:41;23.92;;;15.63;;
19492;SDS011;9887;54.366;10.958;2024-03-08T09:30:09;23.77;;;14.73;;
19492;SDS011;9887;54.366;10.958;2024-03-08T09:32:39;26.05;;;15.55;;
19492;SDS011;9887;54.366;10.958;2024-03-08T09:35:08;27.02;;;14.65;;
19492;SDS011;9887;54.366;10.958;2024-03-08T09:37:37;24.02;;;15.05;;
19492;SDS011;9887;54.366;10.958;2024-03-08T09:40:06;21.75;;;14.23;;
19492;SDS011;9887;54.366;10.958;2024-03-08T09:42:37;25.95;;;15.38;;
19492;SDS011;9887;54.366;10.958;2024-03-08T09:45:05;23.60;;;14.45;;
19492;SDS011;9887;54.366;10.958;2024-03-08T09:47:37;24.77;;;15.05;;
19492;SDS011;9887;54.366;10.958;2024-03-08T09:50:08;28.00;;;16.27;;
19492;SDS011;9887;54.366;10.958;2024-03-08T09:52:38;23.50;;;14.60;;
19492;SDS011;9887;54.366;10.958;2024-03-08T09:55:09;28.02;;;15.15;;
19492;SDS011;9887;54.366;10.958;2024-03-08T09:57:39;25.50;;;15.43;;
19492;SDS011;9887;54.366;10.958;2024-03-08T10:00:09;25.15;;;14.48;;
19492;SDS011;9887;54.366;10.958;2024-03-08T10:02:45;23.95;;;14.88;;
19492;SDS011;9887;54.366;10.958;2024-03-08T10:05:13;22.73;;;14.52;;
19492;SDS011;9887;54.366;10.958;2024-03-08T10:07:41;23.73;;;14.75;;
19492;SDS011;9887;54.366;10.958;2024-03-08T10:10:10;27.27;;;14.50;;
19492;SDS011;9887;54.366;10.958;2024-03-08T10:12:38;24.00;;;14.45;;
19492;SDS011;9887;54.366;10.958;2024-03-08T10:15:07;24.40;;;15.30;;
19492;SDS011;9887;54.366;10.958;2024-03-08T10:17:35;24.77;;;15.02;;
19492;SDS011;9887;54.366;10.958;2024-03-08T10:20:04;24.77;;;14.80;;
19492;SDS011;9887;54.366;10.958;2024-03-08T10:22:41;23.65;;;14.00;;
19492;SDS011;9887;54.366;10.958;2024-03-08T10:25:24;21.52;;;14.27;;
19492;SDS011;9887;54.366;10.958;2024-03-08T10:27:54;22.60;;;14.00;;
19492;SDS011;9887;54.366;10.958;2024-03-08T10:30:23;25.38;;;14.95;;
19492;SDS011;9887;54.366;10.958;2024-03-08T10:32:51;23.85;;;14.73;;
19492;SDS011;9887;54.366;10.958;2024-03-08T10:35:19;22.73;;;14.55;;
19492;SDS011;9887;54.366;10.958;2024-03-08T10:37:49;25.05;;;14.50;;
19492;SDS011;9887;54.366;10.958;2024-03-08T10:40:26;24.67;;;14.57;;
19492;SDS011;9887;54.366;10.958;2024-03-08T10:42:56;25.25;;;14.52;;
19492;SDS011;9887;54.366;10.958;2024-03-08T10:45:34;23.52;;;15.50;;
19492;SDS011;9887;54.366;10.958;2024-03-08T10:48:04;26.02;;;14.93;;
19492;SDS011;9887;54.366;10.958;2024-03-08T10:50:43;25.52;;;14.65;;
19492;SDS011;9887;54.366;10.958;2024-03-08T10:53:15;22.88;;;15.18;;
19492;SDS011;9887;54.366;10.958;2024-03-08T10:55:50;24.80;;;14.55;;
19492;SDS011;9887;54.366;10.958;2024-03-08T10:58:20;22.98;;;14.32;;
19492;SDS011;9887;54.366;10.958;2024-03-08T11:00:49;27.23;;;15.20;;
19492;SDS011;9887;54.366;10.958;2024-03-08T11:06:18;24.00;;;15.30;;
19492;SDS011;9887;54.366;10.958;2024-03-08T11:08:50;26.27;;;16.60;;
19492;SDS011;9887;54.366;10.958;2024-03-08T11:11:26;26.08;;;15.65;;
19492;SDS011;9887;54.366;10.958;2024-03-08T11:14:00;28.23;;;16.80;;
19492;SDS011;9887;54.366;10.958;2024-03-08T11:16:39;26.27;;;15.90;;
19492;SDS011;9887;54.366;10.958;2024-03-08T11:19:27;26.92;;;16.48;;
19492;SDS011;9887;54.366;10.958;2024-03-08T11:21:58;27.75;;;17.60;;
19492;SDS011;9887;54.366;10.958;2024-03-08T11:24:37;27.67;;;16.92;;
19492;SDS011;9887;54.366;10.958;2024-03-08T11:27:10;28.40;;;16.48;;
19492;SDS011;9887;54.366;10.958;2024-03-08T11:29:39;28.33;;;16.80;;
19492;SDS011;9887;54.366;10.958;2024-03-08T11:32:07;24.80;;;15.90;;
19492;SDS011;9887;54.366;10.958;2024-03-08T11:34:42;24.75;;;16.70;;
19492;SDS011;9887;54.366;10.958;2024-03-08T11:37:14;25.98;;;16.52;;
19492;SDS011;9887;54.366;10.958;2024-03-08T11:39:47;27.13;;;16.42;;
19492;SDS011;9887;54.366;10.958;2024-03-08T11:42:17;23.75;;;16.00;;
19492;SDS011;9887;54.366;10.958;2024-03-08T11:44:47;28.02;;;16.67;;
19492;SDS011;9887;54.366;10.958;2024-03-08T11:47:23;25.58;;;15.77;;
19492;SDS011;9887;54.366;10.958;2024-03-08T11:49:52;26.73;;;15.75;;
19492;SDS011;9887;54.366;10.958;2024-03-08T11:52:20;23.45;;;16.05;;
19492;SDS011;9887;54.366;10.958;2024-03-08T11:54:52;24.70;;;15.32;;
19492;SDS011;9887;54.366;10.958;2024-03-08T11:57:25;28.17;;;16.33;;
19492;SDS011;9887;54.366;10.958;2024-03-08T11:59:55;26.73;;;16.30;;
19492;SDS011;9887;54.366;10.958;2024-03-08T12:02:24;23.60;;;14.48;;
19492;SDS011;9887;54.366;10.958;2024-03-08T12:04:55;25.30;;;15.20;;
19492;SDS011;9887;54.366;10.958;2024-03-08T12:07:26;24.58;;;15.90;;
19492;SDS011;9887;54.366;10.958;2024-03-08T12:12:45;25.15;;;15.38;;
19492;SDS011;9887;54.366;10.958;2024-03-08T12:15:14;24.38;;;15.48;;
19492;SDS011;9887;54.366;10.958;2024-03-08T12:17:44;25.33;;;16.30;;
19492;SDS011;9887;54.366;10.958;2024-03-08T12:20:15;24.95;;;15.02;;
19492;SDS011;9887;54.366;10.958;2024-03-08T12:22:44;25.58;;;16.08;;
19492;SDS011;9887;54.366;10.958;2024-03-08T12:25:12;23.85;;;14.85;;
19492;SDS011;9887;54.366;10.958;2024-03-08T12:27:42;25.35;;;15.90;;
19492;SDS011;9887;54.366;10.958;2024-03-08T12:30:20;25.23;;;15.40;;
19492;SDS011;9887;54.366;10.958;2024-03-08T12:32:51;22.60;;;14.55;;
19492;SDS011;9887;54.366;10.958;2024-03-08T12:35:23;23.00;;;15.52;;
19492;SDS011;9887;54.366;10.958;2024-03-08T12:37:52;26.02;;;15.25;;
19492;SDS011;9887;54.366;10.958;2024-03-08T12:40:25;25.20;;;15.38;;
19492;SDS011;9887;54.366;10.958;2024-03-08T12:42:55;24.20;;;15.80;;
19492;SDS011;9887;54.366;10.958;2024-03-08T12:45:24;22.60;;;14.60;;
19492;SDS011;9887;54.366;10.958;2024-03-08T12:47:53;24.10;;;16.13;;
19492;SDS011;9887;54.366;10.958;2024-03-08T12:50:22;23.73;;;15.25;;
19492;SDS011;9887;54.366;10.958;2024-03-08T12:52:52;27.90;;;16.55;;
19492;SDS011;9887;54.366;10.958;2024-03-08T12:55:20;22.33;;;14.75;;
19492;SDS011;9887;54.366;10.958;2024-03-08T12:57:48;25.88;;;16.02;;
19492;SDS011;9887;54.366;10.958;2024-03-08T13:00:19;26.98;;;16.05;;
19492;SDS011;9887;54.366;10.958;2024-03-08T13:02:51;25.40;;;16.33;;
19492;SDS011;9887;54.366;10.958;2024-03-08T13:05:19;23.05;;;15.90;;
19492;SDS011;9887;54.366;10.958;2024-03-08T13:07:47;27.08;;;16.27;;
19492;SDS011;9887;54.366;10.958;2024-03-08T13:10:15;23.98;;;15.70;;
19492;SDS011;9887;54.366;10.958;2024-03-08T13:12:46;24.48;;;15.98;;
19492;SDS011;9887;54.366;10.958;2024-03-08T13:15:19;22.33;;;14.80;;
19492;SDS011;9887;54.366;10.958;2024-03-08T13:17:47;24.42;;;16.52;;
19492;SDS011;9887;54.366;10.958;2024-03-08T13:20:17;23.40;;;15.77;;
19492;SDS011;9887;54.366;10.958;2024-03-08T13:22:56;24.80;;;15.70;;
19492;SDS011;9887;54.366;10.958;2024-03-08T13:25:26;25.35;;;16.33;;
19492;SDS011;9887;54.366;10.958;2024-03-08T13:27:54;25.25;;;16.98;;
19492;SDS011;9887;54.366;10.958;2024-03-08T13:30:25;26.25;;;17.23;;
19492;SDS011;9887;54.366;10.958;2024-03-08T13:32:53;27.08;;;17.45;;
19492;SDS011;9887;54.366;10.958;2024-03-08T13:35:23;26.13;;;17.80;;
19492;SDS011;9887;54.366;10.958;2024-03-08T13:37:56;26.60;;;17.65;;
19492;SDS011;9887;54.366;10.958;2024-03-08T13:40:24;22.85;;;16.52;;
19492;SDS011;9887;54.366;10.958;2024-03-08T13:42:52;25.00;;;18.33;;
19492;SDS011;9887;54.366;10.958;2024-03-08T13:45:20;25.10;;;17.55;;
19492;SDS011;9887;54.366;10.958;2024-03-08T13:47:51;28.25;;;18.15;;
19492;SDS011;9887;54.366;10.958;2024-03-08T13:50:22;27.17;;;17.25;;
19492;SDS011;9887;54.366;10.958;2024-03-08T13:52:52;27.23;;;17.10;;
19492;SDS011;9887;54.366;10.958;2024-03-08T13:55:22;26.30;;;17.40;;
19492;SDS011;9887;54.366;10.958;2024-03-08T13:57:52;27.33;;;16.88;;
19492;SDS011;9887;54.366;10.958;2024-03-08T14:00:20;27.15;;;16.60;;
19492;SDS011;9887;54.366;10.958;2024-03-08T14:02:49;25.85;;;17.15;;
19492;SDS011;9887;54.366;10.958;2024-03-08T14:05:17;24.90;;;17.05;;
19492;SDS011;9887;54.366;10.958;2024-03-08T14:07:47;27.65;;;17.13;;
19492;SDS011;9887;54.366;10.958;2024-03-08T14:10:16;23.35;;;16.55;;
19492;SDS011;9887;54.366;10.958;2024-03-08T14:12:47;23.10;;;15.98;;
19492;SDS011;9887;54.366;10.958;2024-03-08T14:15:17;24.48;;;16.95;;
19492;SDS011;9887;54.366;10.958;2024-03-08T14:17:45;24.17;;;16.17;;
19492;SDS011;9887;54.366;10.958;2024-03-08T14:20:19;25.20;;;15.82;;
19492;SDS011;9887;54.366;10.958;2024-03-08T14:22:53;26.83;;;16.00;;
19492;SDS011;9887;54.366;10.958;2024-03-08T14:25:22;22.20;;;15.32;;
19492;SDS011;9887;54.366;10.958;2024-03-08T14:27:51;26.27;;;17.70;;
19492;SDS011;9887;54.366;10.958;2024-03-08T14:30:20;25.05;;;16.60;;
19492;SDS011;9887;54.366;10.958;2024-03-08T14:33:01;25.33;;;16.05;;
19492;SDS011;9887;54.366;10.958;2024-03-08T14:35:29;21.92;;;15.02;;
19492;SDS011;9887;54.366;10.958;2024-03-08T14:37:59;21.38;;;14.80;;
19492;SDS011;9887;54.366;10.958;2024-03-08T14:40:27;23.00;;;14.13;;
19492;SDS011;9887;54.366;10.958;2024-03-08T14:42:56;21.15;;;14.35;;
19492;SDS011;9887;54.366;10.958;2024-03-08T14:45:24;21.13;;;14.27;;
19492;SDS011;9887;54.366;10.958;2024-03-08T14:47:53;19.95;;;13.75;;